Main page
Satellite images 15-day forecastsClimateMarine weather Cyclones Lightning AirportsFAQ Newsletter About
Weather : Europe Africa North America South America Asia Australia-Oceania Others
Languages Contact

London-Southend, England

latitude: 51-34N, longitude: 000-42E, elevation: 15 m


METAR: EGMC 010850Z 20007KT 9999 FEW018 16/14 Q1016
TAF: EGMC 010801Z 0109/0118 21009KT 9999 FEW030 PROB30 TEMPO 0109/0112 7000 RA BKN014

Time: 09:27 (09:27 UTC)

Current weather observation

The report was made 37 minutes ago, at 08:50 UTC
Wind 7 kt from the South/Southwest
Temperature 16°C
Humidity 88%
Pressure 1016 hPa
Visibility 10 km or more
Few clouds at a height of 1800 ft

Change units

Forecast

The report was made 1 hour and 26 minutes ago, at 08:01 UTC
Forecast valid from 01 at 09 UTC to 01 at 18 UTC
Wind 9 kt from the South/Southwest
Visibility 10 km or more
Few clouds at a height of 3000 ft
Probability 30% :
Temporary
from 01 at 09 UTC to 01 at 12 UTC
Visibility: 7000 m
Broken clouds at a height of 1400 ft
rain
The information on this site is subject to a disclaimer
Weather : Europe Africa North America South America Asia Australia-Oceania Others
Satellite images 15-day forecastsClimateMarine weather Cyclones Lightning AirportsFAQ Languages Contact Newsletter About